Portada
METAR-TAF:

METAR-TAF

Aeroports :

Sallisaw, Oklahoma, Estats Units d'Amèrica

latitud: 35-26-17N, longitud: 094-48-10W, altitud: 161 m

Observació

L'informe es va fer fa 24 minuts, a les 10:35 UTC
Vent 3 kt del Est/Nord-Est
Temperatura 16°C
Humitat 94%
Pressió 1014 hPa
Visibilitat: 16.1 km
Cel cobert a una alçada de 1600 ft

METAR: KJSV 211035Z AUTO 07003KT 10SM OVC016 16/15 A2995 RMK AO2 LTG DSNT S

Hora: 04:59 (10:59 UTC)


TAF: manca

Observacions i pronòstics meteorològics de més de 4000 aeroports (METAR i TAF).

Les estacions disponibles són els punts grocs i vermells al mapa.

Posi el ratolí al punt desitjat per veure el nom de l'estació.

Feu clic per veure les observacions i els pronòstics meteorològics.

Per canviar el mapa: feu clic els botons verds amb una creu de color negre per apropar; al botó verd amb un guió per allunyar la imatge; o en les fletxes verdes per a mapes adjacents.


METAR-TAF: